Time;durP1;ratioP1;P1;durP2;ratioP2;P2;SDS_P1;SDS_P2;PMS_P1;PMS_P2;Temp;Humidity;BMP_temperature;BMP_pressure;BME280_temperature;BME280_humidity;BME280_pressure;Samples;Min_cycle;Max_cycle;Signal;HPM_P1;HPM_P2
2022/10/17 00:00:23;;;;;;;4.00;3.70;;;9.80;78.80;;;;;;5051028;28;20195;-74
2022/10/17 00:02:49;;;;;;;4.67;4.27;;;9.70;79.10;;;;;;5050844;28;20679;-72
2022/10/17 00:05:14;;;;;;;4.60;4.00;;;9.70;78.40;;;;;;5047082;28;20183;-72
2022/10/17 00:07:40;;;;;;;5.30;4.45;;;9.60;77.60;;;;;;5044620;28;20179;-74
2022/10/17 00:10:07;;;;;;;4.88;4.07;;;9.60;77.00;;;;;;5050825;28;20175;-74
2022/10/17 00:12:33;;;;;;;3.85;3.60;;;9.50;77.70;;;;;;5046085;28;20183;-74
2022/10/17 00:15:01;;;;;;;3.78;3.50;;;9.50;78.50;;;;;;5047004;28;20191;-74
2022/10/17 00:17:26;;;;;;;4.13;3.78;;;9.50;78.80;;;;;;5044987;28;20885;-74
2022/10/17 00:19:52;;;;;;;5.90;3.58;;;9.50;78.70;;;;;;5046138;28;20194;-73
2022/10/17 00:22:17;;;;;;;4.43;3.60;;;9.50;77.90;;;;;;5048309;28;20270;-74
2022/10/17 00:24:43;;;;;;;4.20;3.70;;;9.40;78.00;;;;;;5051541;28;20183;-72
2022/10/17 00:27:09;;;;;;;6.87;4.27;;;9.40;77.30;;;;;;5030784;28;20184;-75
2022/10/17 00:29:34;;;;;;;4.73;3.60;;;9.40;77.40;;;;;;5051405;28;20206;-74
2022/10/17 00:32:00;;;;;;;4.55;3.90;;;9.40;77.40;;;;;;5046765;28;20184;-74
2022/10/17 00:34:28;;;;;;;4.23;3.87;;;9.40;78.00;;;;;;5050362;28;20204;-75
2022/10/17 00:36:54;;;;;;;4.07;3.77;;;9.40;77.60;;;;;;5033513;28;20186;-75
2022/10/17 00:39:19;;;;;;;4.53;4.13;;;9.40;77.70;;;;;;5048209;28;20645;-74
2022/10/17 00:41:45;;;;;;;4.27;3.87;;;9.40;77.70;;;;;;5049491;28;20188;-74
2022/10/17 00:44:54;;;;;;;4.20;3.90;;;9.40;77.90;;;;;;5046500;28;20206;-74
2022/10/17 00:47:21;;;;;;;4.85;4.45;;;9.40;77.50;;;;;;4880257;29;20197;-74
2022/10/17 00:49:47;;;;;;;6.77;4.10;;;9.30;79.20;;;;;;4878486;29;20623;-74
2022/10/17 00:52:25;;;;;;;3.87;3.57;;;9.30;79.50;;;;;;4881821;29;20205;-74
2022/10/17 00:54:56;;;;;;;3.73;3.53;;;9.30;78.10;;;;;;4878963;29;20189;-74
2022/10/17 00:57:22;;;;;;;5.30;4.13;;;9.30;79.20;;;;;;4875491;29;20213;-74
2022/10/17 00:59:51;;;;;;;4.63;4.33;;;9.20;80.40;;;;;;4880019;29;20205;-74
2022/10/17 01:02:19;;;;;;;5.17;4.13;;;9.20;79.60;;;;;;4878188;29;20218;-74
2022/10/17 01:04:49;;;;;;;4.60;4.10;;;9.10;79.70;;;;;;4876449;29;20770;-74
2022/10/17 01:07:14;;;;;;;6.10;4.27;;;9.10;78.90;;;;;;4882736;29;20236;-74
2022/10/17 01:09:41;;;;;;;4.43;3.93;;;9.00;80.50;;;;;;4876736;29;20225;-74
2022/10/17 01:12:16;;;;;;;4.93;4.43;;;9.00;80.30;;;;;;4876560;29;20663;-74
2022/10/17 01:14:46;;;;;;;6.33;4.17;;;8.90;79.80;;;;;;4878474;29;20309;-74
2022/10/17 01:17:27;;;;;;;5.27;4.57;;;8.90;80.40;;;;;;4879073;29;20281;-74
2022/10/17 01:20:15;;;;;;;4.10;3.80;;;8.90;79.20;;;;;;4873577;29;20250;-72
2022/10/17 01:22:59;;;;;;;4.73;4.33;;;8.80;78.90;;;;;;4880609;29;20816;-74
2022/10/17 01:25:55;;;;;;;6.53;4.47;;;8.80;80.20;;;;;;5037512;28;20564;-74
2022/10/17 01:28:51;;;;;;;5.57;3.77;;;8.80;79.80;;;;;;4967443;28;20237;-74
2022/10/17 01:31:24;;;;;;;6.37;4.43;;;8.80;80.10;;;;;;4969812;28;20573;-74
2022/10/17 01:34:28;;;;;;;4.53;4.17;;;8.80;80.10;;;;;;4969429;28;20242;-73
2022/10/17 01:37:13;;;;;;;7.07;4.37;;;8.80;80.00;;;;;;4973981;28;20654;-74
2022/10/17 01:40:00;;;;;;;5.40;4.10;;;8.80;81.00;;;;;;4969669;28;20196;-73
2022/10/17 01:42:31;;;;;;;6.33;4.47;;;8.70;80.80;;;;;;4968688;28;20190;-73
2022/10/17 01:45:05;;;;;;;4.27;3.87;;;8.70;82.10;;;;;;4967695;28;20225;-74
2022/10/17 01:47:32;;;;;;;5.53;4.03;;;8.70;82.30;;;;;;4964519;28;20280;-74
2022/10/17 01:50:12;;;;;;;5.60;4.00;;;8.60;82.20;;;;;;4969763;28;20198;-74
2022/10/17 01:53:01;;;;;;;4.10;3.80;;;8.50;81.00;;;;;;4970147;28;20249;-74
2022/10/17 01:55:33;;;;;;;3.67;3.37;;;8.50;82.60;;;;;;4973303;28;20190;-73
2022/10/17 01:58:33;;;;;;;4.53;3.90;;;8.40;83.00;;;;;;4971684;28;20231;-74
2022/10/17 02:01:03;;;;;;;4.43;4.03;;;8.40;82.10;;;;;;4969020;28;20728;-74
2022/10/17 02:03:31;;;;;;;3.43;3.23;;;8.40;82.70;;;;;;4971636;28;20194;-74
2022/10/17 02:05:56;;;;;;;3.27;3.07;;;8.40;82.80;;;;;;5031480;28;20245;-74
2022/10/17 02:08:40;;;;;;;4.80;3.53;;;8.30;83.10;;;;;;5050893;28;20208;-74
2022/10/17 02:11:16;;;;;;;4.33;3.57;;;8.30;82.40;;;;;;5052759;28;20605;-74
2022/10/17 02:13:59;;;;;;;3.57;3.13;;;8.30;82.80;;;;;;5051041;28;20255;-74
2022/10/17 02:16:46;;;;;;;4.53;3.30;;;8.20;81.80;;;;;;5051024;28;20175;-74
2022/10/17 02:19:45;;;;;;;4.90;3.17;;;8.20;81.30;;;;;;5050328;28;20179;-74
2022/10/17 02:22:23;;;;;;;2.73;2.60;;;8.20;81.00;;;;;;5050662;28;20196;-73
2022/10/17 02:24:51;;;;;;;3.53;3.27;;;8.20;81.70;;;;;;5032652;28;20348;-74
2022/10/17 02:27:28;;;;;;;2.90;2.80;;;8.20;81.90;;;;;;5052575;28;20585;-74
2022/10/17 02:30:18;;;;;;;3.37;3.07;;;8.30;82.20;;;;;;5048263;28;20232;-74
2022/10/17 02:32:54;;;;;;;3.17;3.07;;;8.30;82.00;;;;;;5049457;28;20661;-74
2022/10/17 02:35:24;;;;;;;3.43;3.23;;;8.20;81.90;;;;;;5046251;28;20207;-73
2022/10/17 02:37:51;;;;;;;3.33;3.07;;;8.20;81.60;;;;;;5051960;28;20343;-73
2022/10/17 02:40:20;;;;;;;3.47;3.17;;;8.20;81.70;;;;;;5049465;28;20188;-74
2022/10/17 02:42:47;;;;;;;3.57;3.30;;;8.20;82.40;;;;;;5053225;28;20273;-74
2022/10/17 02:45:14;;;;;;;3.90;3.37;;;8.20;82.10;;;;;;5050200;28;20893;-74
2022/10/17 02:48:03;;;;;;;3.87;2.93;;;8.20;81.90;;;;;;5048567;28;20185;-74
2022/10/17 02:51:05;;;;;;;3.90;3.47;;;8.10;81.90;;;;;;5031334;28;20204;-74
2022/10/17 02:53:50;;;;;;;2.30;2.20;;;8.10;81.70;;;;;;5034171;28;20587;-74
2022/10/17 02:56:19;;;;;;;3.63;3.20;;;8.00;81.40;;;;;;5050380;28;20190;-74
2022/10/17 02:58:53;;;;;;;4.20;3.07;;;8.00;81.70;;;;;;5031099;28;20194;-73
2022/10/17 03:01:19;;;;;;;3.93;3.53;;;8.00;81.80;;;;;;5030451;28;20599;-74
2022/10/17 03:03:45;;;;;;;2.87;2.60;;;8.00;81.80;;;;;;5047047;28;20207;-73
2022/10/17 03:06:10;;;;;;;3.00;2.90;;;8.00;81.80;;;;;;5048190;28;21560;-74
2022/10/17 03:08:36;;;;;;;3.33;2.77;;;8.00;82.60;;;;;;5052380;28;20208;-74
2022/10/17 03:11:02;;;;;;;3.27;3.07;;;8.00;82.40;;;;;;5048332;28;20275;-74
2022/10/17 03:13:28;;;;;;;3.00;2.80;;;7.90;82.00;;;;;;5051050;28;20183;-74
2022/10/17 03:15:55;;;;;;;3.00;2.87;;;7.90;82.00;;;;;;5051485;28;20827;-74
2022/10/17 03:18:21;;;;;;;3.40;3.20;;;7.90;82.00;;;;;;5045087;28;20666;-74
2022/10/17 03:20:47;;;;;;;4.63;3.57;;;7.90;82.00;;;;;;5048865;28;20256;-74
2022/10/17 03:23:12;;;;;;;3.20;2.90;;;7.90;82.10;;;;;;5049006;28;20630;-74
2022/10/17 03:25:38;;;;;;;4.50;3.07;;;7.90;82.00;;;;;;5048793;28;20287;-74
2022/10/17 03:28:04;;;;;;;2.67;2.57;;;7.90;82.20;;;;;;5051169;28;20601;-74
2022/10/17 03:30:31;;;;;;;3.13;2.83;;;7.90;82.10;;;;;;5046600;28;20318;-74
2022/10/17 03:32:57;;;;;;;3.40;3.20;;;7.90;82.20;;;;;;5048766;28;20175;-74
2022/10/17 03:35:23;;;;;;;2.37;2.27;;;7.90;82.20;;;;;;5044748;28;20623;-74
2022/10/17 03:37:49;;;;;;;3.20;2.90;;;7.90;82.50;;;;;;5046579;28;20175;-73
2022/10/17 03:40:14;;;;;;;3.40;3.07;;;7.90;82.40;;;;;;5053739;28;20238;-74
2022/10/17 03:42:40;;;;;;;3.53;3.17;;;7.90;82.40;;;;;;5042972;28;20187;-69
2022/10/17 03:45:06;;;;;;;2.87;2.67;;;7.90;82.40;;;;;;5051620;28;20178;-73
2022/10/17 03:47:32;;;;;;;3.47;3.17;;;7.90;82.80;;;;;;5055879;28;20262;-73
2022/10/17 03:49:57;;;;;;;3.00;2.90;;;7.90;82.50;;;;;;5045066;28;20215;-71
2022/10/17 03:52:23;;;;;;;3.63;3.20;;;7.80;82.60;;;;;;5049187;28;20183;-74
2022/10/17 03:54:49;;;;;;;3.17;2.97;;;7.80;82.40;;;;;;5046902;28;20241;-74
2022/10/17 03:57:16;;;;;;;3.30;3.10;;;7.80;82.20;;;;;;5041845;28;21373;-72
2022/10/17 03:59:41;;;;;;;4.20;3.40;;;7.80;82.40;;;;;;5042048;28;20188;-74
2022/10/17 04:02:07;;;;;;;4.10;3.57;;;7.80;82.50;;;;;;5020525;28;20751;-74
2022/10/17 04:04:33;;;;;;;3.70;3.40;;;7.80;82.50;;;;;;5046192;28;20183;-75
2022/10/17 04:06:58;;;;;;;3.83;3.53;;;7.80;82.50;;;;;;5051099;28;20190;-74
2022/10/17 04:09:24;;;;;;;2.87;2.67;;;7.70;82.50;;;;;;5048712;28;20298;-73
2022/10/17 04:11:50;;;;;;;3.33;3.03;;;7.70;82.60;;;;;;5049737;28;20703;-73
2022/10/17 04:14:15;;;;;;;3.40;3.10;;;7.70;82.60;;;;;;5048734;28;20206;-74
2022/10/17 04:16:41;;;;;;;3.30;3.10;;;7.70;82.20;;;;;;5046641;28;20211;-74
2022/10/17 04:19:10;;;;;;;4.60;3.57;;;7.60;82.60;;;;;;5049242;28;20672;-72
2022/10/17 04:21:36;;;;;;;3.73;2.73;;;7.60;82.80;;;;;;5056512;28;20185;-76
2022/10/17 04:24:02;;;;;;;3.07;2.80;;;7.60;82.70;;;;;;5034458;28;20579;-76
2022/10/17 04:26:28;;;;;;;2.70;2.60;;;7.60;82.70;;;;;;5051080;28;20183;-74
2022/10/17 04:28:53;;;;;;;3.33;3.13;;;7.60;82.70;;;;;;5058770;28;20221;-77
2022/10/17 04:31:19;;;;;;;3.27;2.97;;;7.50;82.80;;;;;;5065843;28;20222;-76
2022/10/17 04:33:49;;;;;;;3.80;3.07;;;7.50;83.00;;;;;;5066990;28;20179;-75
2022/10/17 04:36:17;;;;;;;3.47;3.20;;;7.50;83.10;;;;;;5065522;28;20175;-78
2022/10/17 04:38:44;;;;;;;3.27;3.03;;;7.50;83.10;;;;;;5061539;28;20186;-76
2022/10/17 04:41:13;;;;;;;4.20;3.83;;;7.50;83.00;;;;;;5057278;28;20175;-76
2022/10/17 04:43:39;;;;;;;2.60;2.50;;;7.40;83.00;;;;;;5057933;28;20199;-76
2022/10/17 04:46:07;;;;;;;3.27;3.03;;;7.40;83.00;;;;;;5059393;28;20198;-75
2022/10/17 04:48:34;;;;;;;3.37;3.07;;;7.40;82.90;;;;;;5064801;28;20209;-75
2022/10/17 04:51:02;;;;;;;2.83;2.63;;;7.40;83.10;;;;;;5061238;28;20882;-74
2022/10/17 04:53:31;;;;;;;3.33;3.13;;;7.40;83.20;;;;;;5053482;28;20613;-74
2022/10/17 04:55:56;;;;;;;3.33;2.90;;;7.30;82.80;;;;;;5059539;28;20619;-74
2022/10/17 04:58:22;;;;;;;3.50;3.13;;;7.30;82.80;;;;;;5055531;28;20184;-75
2022/10/17 05:00:48;;;;;;;5.27;3.50;;;7.30;83.00;;;;;;5052600;28;20183;-74
2022/10/17 05:03:14;;;;;;;6.43;3.63;;;7.30;83.10;;;;;;5048068;28;20184;-75
2022/10/17 05:05:41;;;;;;;4.73;3.50;;;7.30;83.30;;;;;;5048031;28;20188;-73
2022/10/17 05:08:08;;;;;;;3.67;3.37;;;7.30;83.40;;;;;;5046532;28;20605;-73
2022/10/17 05:10:39;;;;;;;3.57;3.30;;;7.30;83.50;;;;;;5043638;28;20179;-74
2022/10/17 05:13:06;;;;;;;3.23;2.97;;;7.30;83.80;;;;;;5052394;28;20592;-74
2022/10/17 05:15:32;;;;;;;3.83;3.50;;;7.30;83.50;;;;;;5031748;28;20194;-73
2022/10/17 05:17:57;;;;;;;6.80;3.23;;;7.30;83.40;;;;;;5048065;28;20268;-76
2022/10/17 05:20:25;;;;;;;5.13;3.97;;;7.30;83.90;;;;;;5056556;28;20235;-75
2022/10/17 05:22:51;;;;;;;3.60;3.30;;;7.30;83.70;;;;;;5050167;28;20188;-75
2022/10/17 05:25:16;;;;;;;5.43;3.67;;;7.30;83.70;;;;;;5051419;28;20187;-75
2022/10/17 05:27:42;;;;;;;7.77;4.17;;;7.40;84.00;;;;;;5052028;28;20210;-74
2022/10/17 05:30:08;;;;;;;3.90;3.47;;;7.40;84.30;;;;;;5053351;28;20183;-74
2022/10/17 05:32:34;;;;;;;4.47;3.80;;;7.40;84.10;;;;;;5048639;28;20191;-74
2022/10/17 05:35:00;;;;;;;4.07;3.77;;;7.40;84.10;;;;;;5053194;28;20178;-74
2022/10/17 05:37:29;;;;;;;6.03;3.53;;;7.40;84.20;;;;;;5049883;28;20192;-74
2022/10/17 05:39:54;;;;;;;9.03;4.00;;;7.50;84.20;;;;;;5053166;28;20179;-73
2022/10/17 05:42:20;;;;;;;4.13;3.70;;;7.50;84.50;;;;;;5049231;28;20244;-74
2022/10/17 05:44:46;;;;;;;3.87;3.57;;;7.50;84.40;;;;;;5051163;28;20213;-74
2022/10/17 05:47:11;;;;;;;4.87;4.27;;;7.50;84.50;;;;;;5047411;28;20176;-73
2022/10/17 05:49:37;;;;;;;3.40;3.17;;;7.60;84.50;;;;;;5054215;28;20219;-74
2022/10/17 05:52:03;;;;;;;3.63;3.43;;;7.60;84.40;;;;;;5052688;28;20253;-74
2022/10/17 05:54:28;;;;;;;4.50;4.10;;;7.60;84.30;;;;;;5051095;28;20238;-75
2022/10/17 05:56:55;;;;;;;4.20;3.87;;;7.70;84.60;;;;;;5048928;28;20179;-73
2022/10/17 05:59:23;;;;;;;7.23;4.20;;;7.70;84.50;;;;;;5053406;28;20198;-73
2022/10/17 06:01:48;;;;;;;5.47;4.70;;;7.80;84.50;;;;;;5054298;28;20175;-73
2022/10/17 06:04:14;;;;;;;4.67;4.33;;;7.80;84.50;;;;;;5046652;28;20203;-73
2022/10/17 06:06:40;;;;;;;4.53;4.20;;;7.80;84.40;;;;;;5028823;28;20180;-73
2022/10/17 06:09:06;;;;;;;4.60;4.20;;;7.90;84.60;;;;;;5047958;28;20212;-75
2022/10/17 06:11:33;;;;;;;5.30;4.77;;;7.90;84.40;;;;;;5029706;28;20184;-73
2022/10/17 06:13:58;;;;;;;5.13;3.83;;;7.90;84.30;;;;;;5044836;28;20183;-74
2022/10/17 06:16:24;;;;;;;5.20;4.70;;;8.00;84.50;;;;;;5050432;28;20895;-72
2022/10/17 06:18:50;;;;;;;5.77;4.70;;;8.00;84.30;;;;;;5049192;28;20191;-75
2022/10/17 06:21:20;;;;;;;5.57;5.03;;;8.10;84.40;;;;;;5051866;28;20593;-74
2022/10/17 06:23:46;;;;;;;5.27;4.67;;;8.10;84.40;;;;;;5051423;28;20235;-73
2022/10/17 06:26:12;;;;;;;6.70;5.10;;;8.20;84.60;;;;;;5033943;28;20199;-74
2022/10/17 06:28:38;;;;;;;5.03;4.60;;;8.30;84.60;;;;;;5045558;28;20219;-75
2022/10/17 06:31:15;;;;;;;4.87;4.47;;;8.40;84.60;;;;;;5053132;28;20174;-74
2022/10/17 06:33:41;;;;;;;7.70;4.97;;;8.40;84.20;;;;;;5050159;28;20670;-75
2022/10/17 06:36:10;;;;;;;5.80;4.10;;;8.50;84.50;;;;;;5050466;28;20184;-75
2022/10/17 06:38:36;;;;;;;4.63;4.20;;;8.50;84.50;;;;;;5051968;28;20245;-74
2022/10/17 06:41:07;;;;;;;6.97;3.33;;;8.60;84.60;;;;;;5052265;28;20175;-75
2022/10/17 06:43:36;;;;;;;4.20;3.80;;;8.70;84.20;;;;;;5048782;28;20195;-75
2022/10/17 06:46:03;;;;;;;4.80;4.40;;;8.70;84.20;;;;;;5051914;28;20187;-74
2022/10/17 06:48:28;;;;;;;4.83;4.43;;;8.80;84.40;;;;;;5046004;28;20207;-75
2022/10/17 06:51:01;;;;;;;8.00;4.83;;;8.90;84.10;;;;;;5055015;28;20627;-75
2022/10/17 06:53:28;;;;;;;4.27;3.87;;;9.00;84.40;;;;;;5052970;28;20319;-73
2022/10/17 06:55:57;;;;;;;6.23;3.77;;;9.10;84.40;;;;;;5051088;28;20674;-76
2022/10/17 06:58:22;;;;;;;4.27;3.87;;;9.20;84.40;;;;;;5032159;28;20187;-76
2022/10/17 07:00:48;;;;;;;5.93;4.33;;;9.30;84.00;;;;;;5046234;28;20190;-75
2022/10/17 07:03:14;;;;;;;5.45;4.95;;;9.30;84.50;;;;;;5051280;28;20187;-76
2022/10/17 07:05:39;;;;;;;5.45;4.95;;;9.50;85.10;;;;;;5052150;28;20187;-75
2022/10/17 07:08:05;;;;;;;8.95;5.05;;;9.60;85.50;;;;;;5051577;28;20215;-75
2022/10/17 07:10:36;;;;;;;5.53;5.00;;;9.80;86.40;;;;;;5047989;28;20194;-75
2022/10/17 07:13:02;;;;;;;4.95;4.30;;;10.20;85.90;;;;;;5032654;28;20194;-76
2022/10/17 07:15:28;;;;;;;8.38;5.15;;;10.90;86.20;;;;;;5051192;28;20176;-76
2022/10/17 07:17:54;;;;;;;10.10;5.70;;;11.60;85.70;;;;;;5051182;28;20175;-74
2022/10/17 07:20:19;;;;;;;5.30;4.80;;;12.50;85.40;;;;;;5054233;28;20983;-75
2022/10/17 07:22:45;;;;;;;6.95;5.03;;;13.40;80.90;;;;;;5050613;28;20271;-75
2022/10/17 07:25:12;;;;;;;5.60;5.07;;;14.20;77.20;;;;;;5035378;28;20195;-74
2022/10/17 07:27:37;;;;;;;7.32;5.28;;;14.90;74.90;;;;;;5050796;28;20195;-74
2022/10/17 07:30:04;;;;;;;9.30;5.50;;;15.50;73.10;;;;;;5047652;28;20215;-73
2022/10/17 07:32:29;;;;;;;5.78;5.25;;;16.00;73.10;;;;;;5048903;28;20276;-75
2022/10/17 07:34:55;;;;;;;5.80;5.25;;;16.70;72.70;;;;;;5053381;28;20728;-73
2022/10/17 07:37:20;;;;;;;5.82;5.03;;;17.60;71.50;;;;;;5046256;28;20764;-73
2022/10/17 07:39:46;;;;;;;5.90;5.40;;;18.50;69.90;;;;;;5048142;28;20190;-73
2022/10/17 07:42:13;;;;;;;6.50;5.90;;;19.40;67.90;;;;;;5056493;28;20191;-75
2022/10/17 07:44:39;;;;;;;7.18;5.68;;;20.10;66.10;;;;;;5033634;28;20662;-74
2022/10/17 07:47:04;;;;;;;6.82;5.95;;;20.80;63.90;;;;;;5045057;28;20191;-74
2022/10/17 07:49:30;;;;;;;7.97;6.00;;;21.50;62.90;;;;;;5051332;28;20251;-74
2022/10/17 07:51:56;;;;;;;9.55;6.05;;;22.10;61.90;;;;;;5050908;28;20179;-74
2022/10/17 07:54:22;;;;;;;9.63;6.25;;;22.80;61.70;;;;;;5053917;28;20186;-74
2022/10/17 07:56:49;;;;;;;6.35;5.82;;;23.40;59.70;;;;;;5047296;28;20184;-75
2022/10/17 07:59:17;;;;;;;6.80;6.13;;;23.90;59.40;;;;;;5031898;28;20230;-75
2022/10/17 08:01:43;;;;;;;7.53;6.88;;;24.40;58.10;;;;;;5051953;28;20562;-74
2022/10/17 08:04:08;;;;;;;7.72;7.07;;;24.90;57.10;;;;;;5050797;28;20188;-74
2022/10/17 08:06:34;;;;;;;9.02;7.43;;;25.30;56.80;;;;;;5054354;28;20273;-73
2022/10/17 08:09:00;;;;;;;7.90;7.15;;;25.80;56.60;;;;;;5056141;28;20222;-73
2022/10/17 08:11:26;;;;;;;8.25;7.18;;;26.20;55.80;;;;;;5050835;28;20179;-73
2022/10/17 08:13:52;;;;;;;7.78;7.07;;;26.60;56.00;;;;;;5047287;28;20239;-76
2022/10/17 08:16:18;;;;;;;8.77;7.88;;;27.10;54.80;;;;;;5049382;28;20183;-73
2022/10/17 08:18:44;;;;;;;9.07;8.18;;;27.50;54.20;;;;;;5036008;28;20621;-75
2022/10/17 08:21:11;;;;;;;8.75;7.65;;;27.90;53.30;;;;;;5054700;28;20318;-74
2022/10/17 08:23:37;;;;;;;8.13;7.22;;;28.30;53.20;;;;;;5039733;28;20757;-75
2022/10/17 08:26:07;;;;;;;10.52;7.95;;;28.70;50.50;;;;;;5071562;28;20204;-76
2022/10/17 08:28:34;;;;;;;11.73;8.25;;;29.00;52.40;;;;;;5033871;28;20279;-77
2022/10/17 08:31:05;;;;;;;11.50;8.93;;;29.20;50.30;;;;;;5050102;28;20175;-77
2022/10/17 08:33:32;;;;;;;8.60;7.80;;;29.50;51.50;;;;;;5047864;28;20183;-77
2022/10/17 08:35:59;;;;;;;10.10;7.90;;;29.80;49.80;;;;;;5048192;28;20179;-76
2022/10/17 08:38:26;;;;;;;8.98;8.05;;;30.10;49.40;;;;;;5048703;28;20175;-75
2022/10/17 08:40:54;;;;;;;8.93;8.07;;;30.50;49.20;;;;;;5049666;28;20184;-76
2022/10/17 08:43:48;;;;;;;11.27;8.63;;;30.90;48.40;;;;;;5052993;28;20198;-78
2022/10/17 08:46:14;;;;;;;9.07;7.95;;;31.30;47.30;;;;;;5050875;28;20590;-78
2022/10/17 08:48:44;;;;;;;9.63;7.75;;;31.60;48.50;;;;;;5047890;28;21562;-77
2022/10/17 08:51:33;;;;;;;9.38;8.23;;;31.90;46.60;;;;;;5052360;28;20184;-77
2022/10/17 08:54:25;;;;;;;7.75;7.10;;;32.30;45.50;;;;;;5051800;28;20186;-78
2022/10/17 08:56:54;;;;;;;7.75;6.95;;;32.60;45.30;;;;;;5053248;28;20183;-77
2022/10/17 08:59:25;;;;;;;8.57;7.88;;;32.90;42.50;;;;;;5047149;28;20248;-77
2022/10/17 09:02:14;;;;;;;8.88;7.97;;;33.00;47.10;;;;;;5053118;28;20583;-77
2022/10/17 09:05:17;;;;;;;8.05;7.25;;;33.00;47.10;;;;;;5051165;28;20189;-79
2022/10/17 09:07:55;;;;;;;9.32;6.75;;;33.30;44.80;;;;;;5055773;28;20613;-79
2022/10/17 09:10:34;;;;;;;7.65;6.70;;;33.60;45.10;;;;;;5055208;28;20194;-77
2022/10/17 09:13:18;;;;;;;12.93;7.15;;;33.90;43.80;;;;;;5054914;28;20302;-77
2022/10/17 09:16:06;;;;;;;6.85;6.30;;;34.10;45.30;;;;;;5057494;28;20238;-79
2022/10/17 09:18:39;;;;;;;7.68;6.93;;;34.30;44.80;;;;;;5051988;28;20264;-75
2022/10/17 09:21:42;;;;;;;8.35;6.53;;;34.50;40.40;;;;;;5049966;28;20179;-76
2022/10/17 09:24:39;;;;;;;7.13;6.57;;;34.50;40.70;;;;;;5050415;28;20178;-74
2022/10/17 09:27:13;;;;;;;6.65;6.15;;;34.50;42.30;;;;;;4954709;28;20213;-74
2022/10/17 09:29:39;;;;;;;7.32;6.43;;;34.70;44.00;;;;;;4951436;28;20230;-74
2022/10/17 09:32:16;;;;;;;7.20;6.32;;;35.00;44.00;;;;;;4944512;28;20282;-75
2022/10/17 09:34:42;;;;;;;7.13;6.10;;;35.40;43.50;;;;;;4954117;28;20185;-77
2022/10/17 09:37:13;;;;;;;6.32;5.13;;;35.60;43.10;;;;;;4951542;28;20248;-76
2022/10/17 09:39:40;;;;;;;4.63;4.18;;;35.80;40.80;;;;;;4951416;28;21011;-75
2022/10/17 09:42:12;;;;;;;3.92;3.72;;;36.00;40.40;;;;;;4955787;28;20187;-74
2022/10/17 09:44:49;;;;;;;5.03;4.63;;;36.20;43.10;;;;;;4952273;28;21705;-74
2022/10/17 09:47:29;;;;;;;4.03;3.83;;;36.10;40.50;;;;;;4951386;28;20201;-75
2022/10/17 09:49:55;;;;;;;3.80;3.50;;;35.80;39.50;;;;;;4951748;28;20217;-75
2022/10/17 09:52:33;;;;;;;4.28;3.60;;;35.50;40.10;;;;;;4951616;28;20186;-76
2022/10/17 09:55:01;;;;;;;3.40;3.30;;;35.40;42.60;;;;;;4953684;28;20198;-74
2022/10/17 09:57:26;;;;;;;3.97;3.72;;;35.40;40.60;;;;;;4950390;28;20225;-75
2022/10/17 09:59:56;;;;;;;4.55;4.35;;;35.40;41.60;;;;;;4951688;28;20298;-75
2022/10/17 10:02:24;;;;;;;4.00;2.88;;;35.50;39.30;;;;;;4948095;28;20209;-75
2022/10/17 10:05:04;;;;;;;2.50;2.38;;;35.70;40.20;;;;;;5035583;28;20274;-75
2022/10/17 10:07:33;;;;;;;2.35;2.25;;;35.70;40.90;;;;;;5052363;28;20187;-76
2022/10/17 10:10:01;;;;;;;2.33;2.10;;;35.80;37.20;;;;;;5030710;28;20680;-76
2022/10/17 10:12:37;;;;;;;2.00;1.83;;;35.90;41.00;;;;;;5058931;28;20172;-74
2022/10/17 10:15:29;;;;;;;2.38;2.28;;;36.00;40.10;;;;;;5048208;28;20214;-76
2022/10/17 10:17:54;;;;;;;2.33;2.10;;;36.10;38.00;;;;;;5055092;28;20293;-75
2022/10/17 10:20:27;;;;;;;1.60;1.60;;;36.20;40.00;;;;;;5051494;28;20270;-77
2022/10/17 10:23:17;;;;;;;1.67;1.67;;;36.30;39.70;;;;;;5049645;28;20193;-75
2022/10/17 10:26:23;;;;;;;4.95;1.52;;;36.30;36.10;;;;;;5055105;28;20209;-76
2022/10/17 10:28:59;;;;;;;1.30;1.30;;;36.40;35.40;;;;;;5054823;28;20289;-75
2022/10/17 10:31:34;;;;;;;3.47;1.55;;;36.40;39.30;;;;;;5053858;28;20177;-76
2022/10/17 10:34:20;;;;;;;1.65;1.00;;;36.40;37.60;;;;;;5056251;28;20193;-76
2022/10/17 10:36:49;;;;;;;1.67;1.05;;;36.20;35.90;;;;;;5044981;28;20179;-75
2022/10/17 10:39:35;;;;;;;0.82;0.82;;;35.80;37.70;;;;;;5027168;28;20190;-75
2022/10/17 10:42:04;;;;;;;1.17;1.10;;;35.40;38.90;;;;;;5047367;28;20190;-74
2022/10/17 10:44:32;;;;;;;1.10;1.10;;;35.10;38.60;;;;;;5031822;28;20199;-74
2022/10/17 10:47:21;;;;;;;0.93;0.93;;;34.90;39.40;;;;;;5050020;28;20625;-75
2022/10/17 10:49:50;;;;;;;1.17;1.17;;;34.90;37.20;;;;;;5048503;28;20250;-75
2022/10/17 10:52:44;;;;;;;3.80;0.98;;;34.90;39.50;;;;;;5050586;28;20190;-74
2022/10/17 10:55:29;;;;;;;1.25;1.25;;;35.10;36.20;;;;;;4979496;28;20208;-75
2022/10/17 10:58:02;;;;;;;1.42;1.33;;;35.30;37.10;;;;;;4980022;28;20684;-75
2022/10/17 11:00:31;;;;;;;1.33;1.33;;;35.40;38.30;;;;;;4979915;28;20611;-75
2022/10/17 11:03:08;;;;;;;1.63;1.63;;;35.60;39.50;;;;;;4970527;28;20233;-75
2022/10/17 11:05:45;;;;;;;1.17;1.08;;;35.70;38.10;;;;;;4970763;28;20199;-75
2022/10/17 11:08:26;;;;;;;0.98;0.98;;;35.70;39.30;;;;;;4974422;28;20279;-75
2022/10/17 11:11:22;;;;;;;1.75;1.30;;;35.50;38.60;;;;;;4968289;28;20212;-76
2022/10/17 11:14:23;;;;;;;1.23;1.23;;;35.40;35.70;;;;;;4969288;28;20197;-74
2022/10/17 11:17:04;;;;;;;3.90;1.20;;;35.40;36.70;;;;;;4898812;29;20199;-76
2022/10/17 11:19:44;;;;;;;1.15;1.15;;;35.30;38.40;;;;;;4898738;29;20588;-76
2022/10/17 11:22:22;;;;;;;1.02;1.02;;;35.30;36.50;;;;;;4897536;29;20231;-76
2022/10/17 11:24:59;;;;;;;1.02;1.02;;;35.30;39.50;;;;;;4900534;29;20840;-76
2022/10/17 11:27:28;;;;;;;1.08;1.08;;;35.30;37.70;;;;;;4900744;29;20714;-76
2022/10/17 11:29:54;;;;;;;5.93;1.60;;;35.20;39.00;;;;;;4897577;29;20596;-76
2022/10/17 11:32:30;;;;;;;1.00;1.00;;;35.20;36.80;;;;;;4924937;28;21064;-76
2022/10/17 11:35:21;;;;;;;1.27;1.27;;;35.10;36.80;;;;;;4946835;28;20197;-77
2022/10/17 11:37:54;;;;;;;2.15;1.20;;;34.80;36.20;;;;;;4889994;29;20223;-76
2022/10/17 11:40:40;;;;;;;1.25;1.25;;;34.40;37.30;;;;;;4895954;29;20199;-76
2022/10/17 11:43:28;;;;;;;1.27;1.27;;;34.20;38.40;;;;;;4893129;29;20260;-74
2022/10/17 11:46:10;;;;;;;0.90;0.90;;;34.10;37.50;;;;;;4902046;29;20223;-74
2022/10/17 11:48:47;;;;;;;1.70;1.17;;;33.90;37.30;;;;;;4891316;29;20302;-75
2022/10/17 11:51:13;;;;;;;1.33;1.33;;;33.70;37.90;;;;;;4894277;29;20339;-72
2022/10/17 11:54:00;;;;;;;1.67;1.23;;;33.60;37.60;;;;;;4933813;28;20200;-72
2022/10/17 11:56:55;;;;;;;1.10;1.10;;;33.60;39.20;;;;;;4958207;28;20198;-71
2022/10/17 11:59:34;;;;;;;2.70;1.63;;;33.80;37.30;;;;;;4916154;29;20760;-73
2022/10/17 12:02:08;;;;;;;1.20;1.20;;;33.70;37.70;;;;;;4917396;29;20222;-73
2022/10/17 12:05:00;;;;;;;1.42;1.42;;;33.80;39.00;;;;;;4915516;29;20728;-73
2022/10/17 12:07:43;;;;;;;1.20;1.20;;;33.80;37.60;;;;;;4920070;29;20835;-71
2022/10/17 12:10:29;;;;;;;1.30;1.30;;;33.80;36.20;;;;;;4918804;29;20668;-72
2022/10/17 12:12:55;;;;;;;1.50;1.50;;;33.90;37.40;;;;;;4912981;29;20199;-73
2022/10/17 12:15:22;;;;;;;1.25;1.15;;;33.80;37.30;;;;;;4945467;28;20260;-74
2022/10/17 12:18:02;;;;;;;1.42;1.42;;;33.60;35.50;;;;;;4960684;28;20205;-73
2022/10/17 12:20:29;;;;;;;1.30;1.30;;;33.50;36.70;;;;;;4959766;28;20224;-73
2022/10/17 12:22:58;;;;;;;1.00;1.00;;;33.40;37.00;;;;;;4960802;28;20208;-73
2022/10/17 12:25:30;;;;;;;1.50;1.20;;;33.00;36.00;;;;;;4961287;28;20675;-73
2022/10/17 12:28:12;;;;;;;1.75;1.20;;;32.30;35.90;;;;;;4960992;28;20181;-73
2022/10/17 12:31:01;;;;;;;1.38;1.35;;;31.80;36.80;;;;;;4960408;28;20206;-73
2022/10/17 12:33:30;;;;;;;1.40;1.40;;;31.30;37.30;;;;;;4960897;28;20205;-73
2022/10/17 12:36:17;;;;;;;1.15;1.13;;;31.10;38.30;;;;;;4990244;28;20198;-73
2022/10/17 12:38:48;;;;;;;1.10;1.10;;;31.20;37.70;;;;;;5046518;28;20240;-73
2022/10/17 12:41:14;;;;;;;1.65;1.65;;;31.40;38.00;;;;;;5049628;28;20193;-74
2022/10/17 12:43:50;;;;;;;1.15;1.15;;;31.60;36.90;;;;;;5054659;28;20198;-74
2022/10/17 12:47:00;;;;;;;1.33;1.33;;;31.50;38.00;;;;;;5056420;28;20190;-73
2022/10/17 12:49:48;;;;;;;1.52;1.42;;;31.60;37.10;;;;;;5056824;28;20214;-73
2022/10/17 12:52:33;;;;;;;0.98;0.98;;;31.60;37.60;;;;;;5055167;28;20179;-73
2022/10/17 12:55:02;;;;;;;1.73;1.55;;;31.40;37.80;;;;;;5055410;28;20202;-73
2022/10/17 12:57:41;;;;;;;1.50;1.50;;;31.30;38.20;;;;;;5052327;28;20322;-73
2022/10/17 13:00:22;;;;;;;1.20;1.20;;;31.00;39.20;;;;;;5052794;28;20178;-73
2022/10/17 13:02:51;;;;;;;1.55;1.55;;;31.10;37.80;;;;;;5046632;28;20187;-73
2022/10/17 13:05:29;;;;;;;0.90;0.90;;;31.00;37.00;;;;;;5031936;28;20183;-73
2022/10/17 13:07:58;;;;;;;1.17;1.17;;;31.00;37.40;;;;;;5050840;28;20194;-73
2022/10/17 13:10:29;;;;;;;1.20;1.20;;;31.10;39.80;;;;;;5052486;28;20222;-73
2022/10/17 13:13:27;;;;;;;1.25;1.25;;;31.30;37.10;;;;;;5053750;28;20193;-73
2022/10/17 13:15:54;;;;;;;3.25;1.38;;;31.00;38.60;;;;;;4995054;28;20188;-73
2022/10/17 13:18:25;;;;;;;1.30;1.30;;;30.60;38.20;;;;;;4987111;28;20617;-73